createdAt,value
2022-11-14T00:01:11.299Z,6.13
2022-11-14T00:03:38.156Z,5.18
2022-11-14T00:06:07.172Z,7.53
2022-11-14T00:08:35.058Z,3.95
2022-11-14T00:11:02.738Z,5.00
2022-11-14T00:13:30.480Z,6.10
2022-11-14T00:15:58.124Z,6.10
2022-11-14T00:18:24.829Z,5.57
2022-11-14T00:20:53.337Z,6.82
2022-11-14T00:23:21.483Z,5.53
2022-11-14T00:25:48.881Z,6.85
2022-11-14T00:28:16.231Z,6.68
2022-11-14T00:30:47.091Z,6.15
2022-11-14T00:33:20.069Z,7.88
2022-11-14T00:35:55.798Z,6.00
2022-11-14T00:38:23.399Z,7.00
2022-11-14T00:40:50.991Z,7.55
2022-11-14T00:43:17.726Z,6.20
2022-11-14T00:45:46.054Z,5.82
2022-11-14T00:48:13.182Z,7.35
2022-11-14T00:50:40.260Z,6.72
2022-11-14T00:53:07.038Z,7.70
2022-11-14T00:55:34.151Z,7.25
2022-11-14T00:58:01.390Z,7.70
2022-11-14T01:00:28.881Z,8.10
2022-11-14T01:02:57.006Z,8.32
2022-11-14T01:05:25.479Z,7.60
2022-11-14T01:07:52.179Z,8.05
2022-11-14T01:10:19.853Z,8.27
2022-11-14T01:12:47.186Z,8.52
2022-11-14T01:15:13.995Z,8.65
2022-11-14T01:17:40.855Z,9.23
2022-11-14T01:20:08.139Z,9.82
2022-11-14T01:22:34.896Z,7.50
2022-11-14T01:25:02.789Z,10.00
2022-11-14T01:27:33.442Z,9.25
2022-11-14T01:29:59.980Z,7.70
2022-11-14T01:32:28.336Z,7.78
2022-11-14T01:34:55.077Z,8.50
2022-11-14T01:37:21.699Z,8.90
2022-11-14T01:39:48.287Z,10.13
2022-11-14T01:42:17.376Z,9.77
2022-11-14T01:44:48.528Z,8.38
2022-11-14T01:47:22.202Z,9.77
2022-11-14T01:49:53.755Z,8.55
2022-11-14T01:52:34.955Z,10.45
2022-11-14T01:55:05.491Z,8.30
2022-11-14T01:57:37.904Z,9.00
2022-11-14T02:00:09.361Z,11.10
2022-11-14T02:02:37.272Z,10.60
2022-11-14T02:05:11.050Z,10.32
2022-11-14T02:07:40.798Z,9.55
2022-11-14T02:10:10.655Z,10.43
2022-11-14T02:12:38.275Z,12.18
2022-11-14T02:15:05.996Z,10.18
2022-11-14T02:17:33.588Z,11.65
2022-11-14T02:20:11.655Z,10.13
2022-11-14T02:22:41.044Z,10.57
2022-11-14T02:25:09.697Z,10.13
2022-11-14T02:27:38.156Z,12.07
2022-11-14T02:30:08.930Z,10.15
2022-11-14T02:35:23.961Z,10.02
2022-11-14T02:37:51.460Z,11.25
2022-11-14T02:40:19.062Z,9.98
2022-11-14T02:42:46.406Z,11.07
2022-11-14T02:45:14.095Z,11.95
2022-11-14T02:47:41.535Z,10.80
2022-11-14T02:50:08.703Z,11.60
2022-11-14T02:52:35.684Z,11.10
2022-11-14T02:55:03.181Z,10.88
2022-11-14T02:57:30.523Z,11.25
2022-11-14T02:59:57.802Z,10.68
2022-11-14T03:02:24.649Z,11.93
2022-11-14T03:04:51.269Z,11.30
2022-11-14T03:07:18.695Z,11.57
2022-11-14T03:09:45.393Z,10.32
2022-11-14T03:12:12.064Z,11.52
2022-11-14T03:14:38.723Z,12.60
2022-11-14T03:17:06.263Z,11.98
2022-11-14T03:19:33.645Z,12.82
2022-11-14T03:22:01.024Z,12.57
2022-11-14T03:24:28.225Z,11.85
2022-11-14T03:26:54.987Z,11.70
2022-11-14T03:29:22.438Z,12.27
2022-11-14T03:31:49.575Z,9.10
2022-11-14T03:34:17.018Z,11.77
2022-11-14T03:36:44.141Z,12.70
2022-11-14T03:39:11.417Z,11.68
2022-11-14T03:41:38.154Z,13.30
2022-11-14T03:44:05.257Z,12.38
2022-11-14T03:46:32.298Z,13.38
2022-11-14T03:48:59.018Z,12.40
2022-11-14T03:51:25.793Z,13.02
2022-11-14T03:53:52.569Z,12.82
2022-11-14T03:56:19.715Z,14.43
2022-11-14T03:58:46.840Z,13.40
2022-11-14T04:01:14.714Z,12.80
2022-11-14T04:03:42.199Z,11.70
2022-11-14T04:06:10.043Z,11.32
2022-11-14T04:08:37.245Z,12.55
2022-11-14T04:11:03.945Z,12.25
2022-11-14T04:13:30.911Z,11.65
2022-11-14T04:15:58.605Z,12.07
2022-11-14T04:18:26.330Z,13.80
2022-11-14T04:20:53.769Z,12.55
2022-11-14T04:23:20.435Z,10.57
2022-11-14T04:25:47.480Z,12.35
2022-11-14T04:28:15.248Z,10.45
2022-11-14T04:30:42.772Z,12.32
2022-11-14T04:33:10.055Z,13.10
2022-11-14T04:35:36.733Z,12.38
2022-11-14T04:38:04.783Z,11.60
2022-11-14T04:40:32.062Z,12.18
2022-11-14T04:42:58.766Z,12.05
2022-11-14T04:45:25.765Z,11.13
2022-11-14T04:47:52.965Z,11.45
2022-11-14T04:50:19.730Z,13.27
2022-11-14T04:52:47.263Z,11.80
2022-11-14T04:55:14.478Z,12.02
2022-11-14T04:57:41.501Z,13.63
2022-11-14T05:00:09.376Z,12.00
2022-11-14T05:02:36.881Z,11.75
2022-11-14T05:05:04.160Z,11.60
2022-11-14T05:07:31.713Z,12.57
2022-11-14T05:09:58.960Z,11.63
2022-11-14T05:12:26.394Z,12.95
2022-11-14T05:14:53.846Z,13.00
2022-11-14T05:17:21.203Z,12.05
2022-11-14T05:19:48.514Z,12.07
2022-11-14T05:22:15.770Z,10.73
2022-11-14T05:24:43.137Z,11.30
2022-11-14T05:27:09.980Z,12.13
2022-11-14T05:29:37.144Z,13.68
2022-11-14T05:32:04.311Z,11.88
2022-11-14T05:34:30.873Z,12.57
2022-11-14T05:36:58.020Z,11.07
2022-11-14T05:39:24.744Z,11.90
2022-11-14T05:41:52.076Z,14.07
2022-11-14T05:44:19.182Z,11.63
2022-11-14T05:46:46.598Z,9.38
2022-11-14T05:49:15.003Z,12.23
2022-11-14T05:51:44.968Z,11.38
2022-11-14T05:54:12.155Z,14.10
2022-11-14T05:56:38.765Z,11.38
2022-11-14T05:59:05.827Z,11.57
2022-11-14T06:01:33.286Z,11.43
2022-11-14T06:04:00.345Z,11.52
2022-11-14T06:06:27.899Z,12.45
2022-11-14T06:08:54.728Z,11.30
2022-11-14T06:11:22.729Z,11.98
2022-11-14T06:13:49.592Z,10.68
2022-11-14T06:16:19.223Z,11.60
2022-11-14T06:18:46.683Z,10.13
2022-11-14T06:21:19.518Z,11.77
2022-11-14T06:23:47.013Z,9.32
2022-11-14T06:26:21.527Z,9.27
2022-11-14T06:28:49.536Z,10.38
2022-11-14T06:31:16.886Z,10.57
2022-11-14T06:33:43.931Z,14.00
2022-11-14T06:36:10.664Z,8.50
2022-11-14T06:38:39.429Z,8.85
2022-11-14T06:41:07.120Z,9.25
2022-11-14T06:43:41.376Z,8.07
2022-11-14T06:46:10.129Z,9.75
2022-11-14T06:48:37.815Z,8.00
2022-11-14T06:51:05.910Z,8.93
2022-11-14T06:53:36.420Z,8.57
2022-11-14T06:56:07.713Z,10.10
2022-11-14T06:58:37.062Z,9.07
2022-11-14T07:01:12.220Z,8.57
2022-11-14T07:03:39.050Z,7.68
2022-11-14T07:06:06.424Z,8.38
2022-11-14T07:08:34.518Z,8.02
2022-11-14T07:11:06.465Z,7.28
2022-11-14T07:13:34.019Z,9.27
2022-11-14T07:16:01.211Z,8.98
2022-11-14T07:18:30.630Z,8.43
2022-11-14T07:21:03.326Z,9.38
2022-11-14T07:23:31.231Z,9.68
2022-11-14T07:26:08.861Z,8.63
2022-11-14T07:28:41.218Z,7.00
2022-11-14T07:31:10.523Z,7.95
2022-11-14T07:33:37.555Z,7.40
2022-11-14T07:36:05.108Z,8.95
2022-11-14T07:38:32.979Z,8.02
2022-11-14T07:41:02.032Z,7.93
2022-11-14T07:43:29.145Z,14.82
2022-11-14T07:46:04.828Z,10.20
2022-11-14T07:48:33.101Z,12.43
2022-11-14T07:51:04.999Z,12.23
2022-11-14T07:53:33.291Z,11.65
2022-11-14T07:56:05.830Z,10.45
2022-11-14T07:58:33.306Z,10.82
2022-11-14T08:01:03.547Z,12.95
2022-11-14T08:03:32.360Z,14.80
2022-11-14T08:06:04.695Z,13.68
2022-11-14T08:08:32.029Z,10.23
2022-11-14T08:11:00.284Z,21.23
2022-11-14T08:13:33.010Z,14.80
2022-11-14T08:16:09.160Z,9.23
2022-11-14T08:18:38.759Z,11.30
2022-11-14T08:21:06.006Z,18.08
2022-11-14T08:23:32.779Z,10.55
2022-11-14T08:26:00.001Z,11.88
2022-11-14T08:28:26.998Z,10.40
2022-11-14T08:30:59.395Z,8.05
2022-11-14T08:33:25.982Z,9.60
2022-11-14T08:35:52.998Z,9.88
2022-11-14T08:38:19.517Z,9.57
2022-11-14T08:40:46.044Z,9.45
2022-11-14T08:43:12.716Z,8.85
2022-11-14T08:45:39.361Z,9.23
2022-11-14T08:48:06.510Z,7.43
2022-11-14T08:50:33.688Z,7.90
2022-11-14T08:53:00.900Z,7.03
2022-11-14T08:55:27.431Z,8.35
2022-11-14T08:57:54.656Z,7.80
2022-11-14T09:00:21.865Z,7.97
2022-11-14T09:02:48.528Z,7.05
2022-11-14T09:05:15.152Z,6.85
2022-11-14T09:07:41.752Z,6.25
2022-11-14T09:10:08.921Z,7.03
2022-11-14T09:12:35.937Z,7.45
2022-11-14T09:15:02.473Z,5.50
2022-11-14T09:17:29.212Z,6.72
2022-11-14T09:19:56.496Z,9.00
2022-11-14T09:22:23.402Z,6.70
2022-11-14T09:24:52.020Z,5.72
2022-11-14T09:27:18.653Z,5.22
2022-11-14T09:29:45.678Z,6.30
2022-11-14T09:32:12.334Z,6.55
2022-11-14T09:34:42.908Z,5.78
2022-11-14T09:37:10.303Z,6.93
2022-11-14T09:39:40.465Z,6.05
2022-11-14T09:42:39.446Z,5.78
2022-11-14T09:45:12.921Z,7.15
2022-11-14T09:47:45.093Z,5.85
2022-11-14T09:50:15.978Z,6.32
2022-11-14T09:52:47.803Z,5.97
2022-11-14T09:55:19.413Z,5.75
2022-11-14T09:57:47.077Z,6.20
2022-11-14T10:00:14.129Z,6.70
2022-11-14T10:02:48.319Z,7.70
2022-11-14T10:05:33.571Z,5.50
2022-11-14T10:08:19.358Z,5.43
2022-11-14T10:10:57.803Z,9.07
2022-11-14T10:13:24.796Z,5.75
2022-11-14T10:15:51.439Z,11.27
2022-11-14T10:18:55.384Z,6.70
2022-11-14T10:21:54.195Z,4.60
2022-11-14T10:24:20.682Z,4.35
2022-11-14T10:27:03.824Z,5.40
2022-11-14T10:29:58.276Z,4.82
2022-11-14T10:33:06.474Z,6.72
2022-11-14T10:35:41.943Z,6.95
2022-11-14T10:38:23.476Z,5.40
2022-11-14T10:40:55.916Z,4.55
2022-11-14T10:43:47.915Z,4.55
2022-11-14T10:46:25.404Z,7.15
2022-11-14T10:51:42.092Z,6.72
2022-11-14T10:54:24.165Z,5.05
2022-11-14T10:56:54.567Z,5.50
2022-11-14T10:59:28.199Z,4.22
2022-11-14T11:01:57.085Z,4.57
2022-11-14T11:04:29.796Z,5.28
2022-11-14T11:07:08.560Z,4.45
2022-11-14T11:09:56.130Z,4.88
2022-11-14T11:12:35.534Z,5.07
2022-11-14T11:15:18.057Z,5.53
2022-11-14T11:18:23.997Z,4.18
2022-11-14T11:21:02.513Z,7.07
2022-11-14T11:23:31.219Z,4.82
2022-11-14T11:26:06.070Z,4.43
2022-11-14T11:28:35.763Z,5.45
2022-11-14T11:31:05.159Z,5.40
2022-11-14T11:33:38.270Z,5.32
2022-11-14T11:36:16.576Z,5.88
2022-11-14T11:38:44.623Z,4.57
2022-11-14T11:41:33.382Z,4.15
2022-11-14T11:44:11.788Z,6.63
2022-11-14T11:46:50.831Z,4.97
2022-11-14T11:49:51.735Z,4.43
2022-11-14T11:52:32.970Z,5.40
2022-11-14T11:55:23.752Z,3.88
2022-11-14T11:58:19.149Z,4.70
2022-11-14T12:00:46.507Z,4.18
2022-11-14T12:03:20.343Z,5.15
2022-11-14T12:06:13.876Z,7.15
2022-11-14T12:08:52.864Z,6.88
2022-11-14T12:11:29.824Z,7.10
2022-11-14T12:14:23.391Z,9.55
2022-11-14T12:17:20.911Z,6.50
2022-11-14T12:20:12.529Z,10.55
2022-11-14T12:23:17.699Z,8.70
2022-11-14T12:26:21.377Z,11.80
2022-11-14T12:29:10.337Z,8.45
2022-11-14T12:31:40.223Z,14.23
2022-11-14T12:34:21.369Z,8.38
2022-11-14T12:36:48.298Z,8.57
2022-11-14T12:39:27.349Z,10.02
2022-11-14T12:42:31.242Z,6.95
2022-11-14T12:45:35.579Z,7.88
2022-11-14T12:48:40.160Z,6.38
2022-11-14T12:51:31.665Z,6.20
2022-11-14T12:53:58.693Z,6.60
2022-11-14T12:56:31.523Z,7.57
2022-11-14T12:59:28.756Z,9.65
2022-11-14T13:02:10.006Z,10.27
2022-11-14T13:04:42.765Z,7.50
2022-11-14T13:07:42.726Z,9.00
2022-11-14T13:10:30.453Z,10.05
2022-11-14T13:13:32.626Z,6.93
2022-11-14T13:16:26.545Z,9.30
2022-11-14T13:19:22.659Z,7.68
2022-11-14T13:22:21.473Z,7.20
2022-11-14T13:25:03.353Z,8.35
2022-11-14T13:31:05.301Z,8.23
2022-11-14T13:34:25.123Z,8.77
2022-11-14T13:37:23.911Z,6.72
2022-11-14T13:40:00.813Z,8.73
2022-11-14T13:43:05.549Z,6.93
2022-11-14T13:45:51.460Z,5.97
2022-11-14T13:48:57.416Z,5.50
2022-11-14T13:51:42.741Z,7.45
2022-11-14T13:54:23.695Z,6.85
2022-11-14T13:57:03.233Z,7.72
2022-11-14T13:59:40.972Z,4.88
2022-11-14T14:02:33.715Z,5.03
2022-11-14T14:05:15.657Z,9.52
2022-11-14T14:07:58.305Z,6.07
2022-11-14T14:11:05.461Z,5.70
2022-11-14T14:16:31.836Z,4.65
2022-11-14T14:19:13.113Z,4.57
2022-11-14T14:21:49.782Z,5.82
2022-11-14T14:24:28.855Z,6.43
2022-11-14T14:27:24.676Z,5.85
2022-11-14T14:30:12.069Z,5.57
2022-11-14T14:32:38.986Z,6.15
2022-11-14T14:35:28.703Z,5.97
2022-11-14T14:37:57.612Z,5.07
2022-11-14T14:40:33.934Z,7.63
2022-11-14T14:43:04.192Z,6.28
2022-11-14T14:45:44.746Z,6.10
2022-11-14T14:48:18.459Z,5.90
2022-11-14T14:50:52.155Z,4.95
2022-11-14T14:53:23.112Z,8.35
2022-11-14T14:56:01.551Z,5.57
2022-11-14T14:58:30.726Z,4.05
2022-11-14T15:01:03.863Z,4.10
2022-11-14T15:03:39.007Z,5.30
2022-11-14T15:06:18.343Z,6.32
2022-11-14T15:08:46.011Z,5.78
2022-11-14T15:11:17.006Z,5.22
2022-11-14T15:13:47.635Z,5.07
2022-11-14T15:16:15.397Z,6.82
2022-11-14T15:18:45.160Z,7.03
2022-11-14T15:21:30.270Z,7.55
2022-11-14T15:24:00.259Z,6.25
2022-11-14T15:26:29.959Z,6.18
2022-11-14T15:29:27.316Z,6.93
2022-11-14T15:32:00.224Z,5.10
2022-11-14T15:34:29.633Z,4.38
2022-11-14T15:38:15.900Z,8.35
2022-11-14T15:41:26.121Z,6.95
2022-11-14T15:44:35.631Z,7.18
2022-11-14T15:47:07.101Z,7.00
2022-11-14T15:50:20.229Z,5.30
2022-11-14T15:52:59.291Z,9.18
2022-11-14T15:55:31.318Z,5.72
2022-11-14T15:58:26.530Z,5.05
2022-11-14T16:00:52.183Z,7.10
2022-11-14T16:03:27.315Z,5.53
2022-11-14T16:05:54.117Z,5.50
2022-11-14T16:08:21.277Z,5.05
2022-11-14T16:11:05.053Z,4.78
2022-11-14T16:13:36.940Z,5.20
2022-11-14T16:16:06.694Z,4.78
2022-11-14T16:18:33.695Z,9.57
2022-11-14T16:21:06.734Z,7.75
2022-11-14T16:23:33.784Z,7.45
2022-11-14T16:26:02.676Z,5.45
2022-11-14T16:28:29.619Z,5.25
2022-11-14T16:30:56.587Z,5.07
2022-11-14T16:33:28.951Z,4.30
2022-11-14T16:36:04.775Z,7.45
2022-11-14T16:38:40.882Z,10.05
2022-11-14T16:41:21.454Z,6.05
2022-11-14T16:43:48.236Z,7.03
2022-11-14T16:46:15.024Z,7.30
2022-11-14T16:48:46.240Z,4.90
2022-11-14T16:51:40.757Z,5.85
2022-11-14T16:54:01.191Z,5.82
2022-11-14T16:56:27.989Z,6.72
2022-11-14T16:59:02.304Z,7.25
2022-11-14T17:01:29.020Z,6.25
2022-11-14T17:04:00.053Z,5.60
2022-11-14T17:06:28.483Z,5.25
2022-11-14T17:08:59.103Z,5.60
2022-11-14T17:11:27.004Z,7.05
2022-11-14T17:13:55.194Z,6.32
2022-11-14T17:16:22.592Z,6.30
2022-11-14T17:18:56.231Z,5.43
2022-11-14T17:21:24.126Z,7.60
2022-11-14T17:23:58.441Z,8.27
2022-11-14T17:26:25.097Z,6.15
2022-11-14T17:28:52.319Z,5.53
2022-11-14T17:31:19.873Z,5.40
2022-11-14T17:33:54.776Z,6.40
2022-11-14T17:36:22.923Z,7.20
2022-11-14T17:38:50.014Z,5.00
2022-11-14T17:41:17.306Z,6.32
2022-11-14T17:43:44.484Z,6.88
2022-11-14T17:46:16.049Z,6.60
2022-11-14T17:48:44.914Z,6.40
2022-11-14T17:51:13.563Z,6.78
2022-11-14T17:53:40.625Z,7.03
2022-11-14T17:56:08.388Z,7.25
2022-11-14T17:58:35.149Z,6.60
2022-11-14T18:01:02.449Z,5.03
2022-11-14T18:03:52.277Z,7.10
2022-11-14T18:06:21.225Z,5.93
2022-11-14T18:08:48.446Z,5.38
2022-11-14T18:11:17.560Z,6.97
2022-11-14T18:13:44.294Z,6.45
2022-11-14T18:16:14.080Z,5.50
2022-11-14T18:18:41.479Z,5.68
2022-11-14T18:21:19.932Z,5.95
2022-11-14T18:23:58.040Z,7.93
2022-11-14T18:26:28.033Z,5.32
2022-11-14T18:28:59.652Z,5.57
2022-11-14T18:31:26.327Z,5.63
2022-11-14T18:33:53.600Z,5.35
2022-11-14T18:36:20.537Z,6.22
2022-11-14T18:38:47.395Z,5.68
2022-11-14T18:41:16.380Z,5.65
2022-11-14T18:43:44.553Z,7.32
2022-11-14T18:46:14.930Z,6.85
2022-11-14T18:48:44.634Z,5.45
2022-11-14T18:51:13.813Z,7.47
2022-11-14T18:53:41.011Z,5.18
2022-11-14T18:56:11.199Z,5.75
2022-11-14T18:58:39.997Z,5.82
2022-11-14T19:01:11.428Z,8.40
2022-11-14T19:03:38.060Z,8.00
2022-11-14T19:06:07.179Z,6.55
2022-11-14T19:08:34.146Z,5.90
2022-11-14T19:11:06.698Z,5.45
2022-11-14T19:13:34.468Z,5.47
2022-11-14T19:16:05.751Z,7.95
2022-11-14T19:18:32.976Z,5.57
2022-11-14T19:21:03.722Z,3.88
2022-11-14T19:23:30.624Z,4.30
2022-11-14T19:26:02.005Z,4.65
2022-11-14T19:28:31.889Z,4.70
2022-11-14T19:31:03.439Z,5.35
2022-11-14T19:33:31.277Z,5.47
2022-11-14T19:35:59.488Z,4.32
2022-11-14T19:38:26.094Z,6.20
2022-11-14T19:40:53.161Z,4.53
2022-11-14T19:43:21.017Z,5.82
2022-11-14T19:45:48.268Z,4.78
2022-11-14T19:48:15.462Z,5.25
2022-11-14T19:50:42.035Z,7.65
2022-11-14T19:53:08.953Z,4.72
2022-11-14T19:55:35.643Z,4.05
2022-11-14T19:58:02.304Z,5.25
2022-11-14T20:00:29.448Z,5.00
2022-11-14T20:02:56.055Z,3.88
2022-11-14T20:05:22.662Z,5.25
2022-11-14T20:07:49.318Z,5.22
2022-11-14T20:10:16.219Z,3.70
2022-11-14T20:12:45.924Z,4.60
2022-11-14T20:15:12.575Z,4.25
2022-11-14T20:17:39.280Z,4.05
2022-11-14T20:20:06.657Z,4.05
2022-11-14T20:22:33.765Z,4.25
2022-11-14T20:25:00.847Z,4.55
2022-11-14T20:27:27.416Z,5.00
2022-11-14T20:29:54.491Z,4.07
2022-11-14T20:32:21.814Z,4.55
2022-11-14T20:34:51.711Z,4.28
2022-11-14T20:37:19.573Z,4.70
2022-11-14T20:39:46.694Z,4.35
2022-11-14T20:42:13.197Z,4.05
2022-11-14T20:44:40.689Z,4.65
2022-11-14T20:47:10.860Z,4.18
2022-11-14T20:49:38.434Z,5.00
2022-11-14T20:52:05.656Z,4.65
2022-11-14T20:54:32.226Z,4.85
2022-11-14T20:56:58.769Z,5.10
2022-11-14T20:59:25.853Z,3.95
2022-11-14T21:01:54.440Z,4.07
2022-11-14T21:04:21.155Z,4.18
2022-11-14T21:06:47.875Z,5.10
2022-11-14T21:09:15.127Z,6.57
2022-11-14T21:11:41.722Z,3.95
2022-11-14T21:14:11.056Z,3.67
2022-11-14T21:16:39.527Z,3.92
2022-11-14T21:19:07.305Z,4.63
2022-11-14T21:21:35.923Z,3.40
2022-11-14T21:24:03.664Z,5.05
2022-11-14T21:26:32.904Z,3.45
2022-11-14T21:29:03.757Z,3.35
2022-11-14T21:31:34.848Z,3.80
2022-11-14T21:34:04.728Z,3.03
2022-11-14T21:36:47.633Z,4.57
2022-11-14T21:39:18.021Z,3.53
2022-11-14T21:41:46.317Z,3.67
2022-11-14T21:44:16.466Z,3.13
2022-11-14T21:46:45.494Z,3.20
2022-11-14T21:49:12.279Z,3.88
2022-11-14T21:51:38.876Z,3.88
2022-11-14T21:54:06.578Z,4.97
2022-11-14T21:56:35.125Z,3.65
2022-11-14T21:59:16.368Z,3.45
2022-11-14T22:02:07.016Z,4.00
2022-11-14T22:04:34.660Z,2.97
2022-11-14T22:07:03.290Z,4.00
2022-11-14T22:09:30.545Z,4.10
2022-11-14T22:11:57.629Z,3.70
2022-11-14T22:14:25.541Z,4.10
2022-11-14T22:16:52.635Z,5.10
2022-11-14T22:19:20.206Z,3.65
2022-11-14T22:21:47.662Z,3.25
2022-11-14T22:24:14.215Z,3.80
2022-11-14T22:26:41.392Z,3.20
2022-11-14T22:29:09.541Z,3.67
2022-11-14T22:31:37.230Z,2.97
2022-11-14T22:34:04.428Z,3.35
2022-11-14T22:36:31.771Z,2.63
2022-11-14T22:38:58.588Z,3.15
2022-11-14T22:41:33.829Z,4.25
2022-11-14T22:44:01.844Z,3.40
2022-11-14T22:46:29.168Z,3.03
2022-11-14T22:48:56.636Z,2.88
2022-11-14T22:51:25.894Z,4.00
2022-11-14T22:53:55.444Z,3.92
2022-11-14T22:56:24.920Z,3.83
2022-11-14T22:58:51.772Z,5.47
2022-11-14T23:01:24.734Z,3.80
2022-11-14T23:03:57.333Z,3.60
2022-11-14T23:06:25.412Z,3.60
2022-11-14T23:08:52.745Z,4.15
2022-11-14T23:11:24.258Z,4.25
2022-11-14T23:13:53.646Z,5.30
2022-11-14T23:16:23.110Z,3.92
2022-11-14T23:18:51.193Z,5.00
2022-11-14T23:21:27.987Z,4.80
2022-11-14T23:23:56.683Z,4.50
2022-11-14T23:26:24.034Z,5.35
2022-11-14T23:28:51.210Z,4.95
2022-11-14T23:31:19.437Z,4.88
2022-11-14T23:33:47.912Z,5.78
2022-11-14T23:36:15.699Z,5.30
2022-11-14T23:38:42.948Z,4.45
2022-11-14T23:41:16.492Z,5.43
2022-11-14T23:43:43.510Z,5.00
2022-11-14T23:46:10.199Z,6.55
2022-11-14T23:48:37.295Z,5.47
2022-11-14T23:51:04.708Z,5.13
2022-11-14T23:53:32.292Z,5.68
2022-11-14T23:56:01.519Z,5.78
2022-11-14T23:58:29.500Z,5.57
